Time,TemperatureF,DewpointF,PressureIn,WindDirection,WindDirectionDegrees,WindSpeedMPH,WindSpeedGustMPH,Humidity,HourlyPrecipIn,Conditions,Clouds,dailyrainin,SoftwareType,DateUTC
2013-12-07 00:09:00,29.3,29.1,30.02,NW,315,2.2,-999.0,99,-99.99,,,0.00,Acu-Link.com,2013-12-07 05:09:00,
2013-12-07 00:25:00,29.1,28.9,30.01,NNW,337,3.7,-999.0,99,-99.99,,,0.00,Acu-Link.com,2013-12-07 05:25:00,
2013-12-07 00:40:00,28.9,28.7,30.01,WNW,292,4.2,-999.0,99,-99.99,,,0.00,Acu-Link.com,2013-12-07 05:40:00,
2013-12-07 00:55:00,28.8,28.6,30.01,West,270,2.7,-999.0,99,-99.99,,,0.00,Acu-Link.com,2013-12-07 05:55:00,
2013-12-07 01:10:00,28.6,28.4,30.01,WNW,292,3.2,-999.0,99,-99.99,,,0.00,Acu-Link.com,2013-12-07 06:10:00,
2013-12-07 01:25:00,28.4,28.2,30.02,East,90,2.7,-999.0,99,-99.99,,,0.00,Acu-Link.com,2013-12-07 06:25:00,
2013-12-07 01:40:00,28.4,28.2,30.02,NW,315,3.2,-999.0,99,-99.99,,,0.00,Acu-Link.com,2013-12-07 06:40:00,
2013-12-07 01:56:00,28.2,28.0,30.02,ESE,112,2.7,-999.0,99,-99.99,,,0.00,Acu-Link.com,2013-12-07 06:56:00,
2013-12-07 02:11:00,28.2,28.0,30.02,West,270,1.1,-999.0,99,-99.99,,,0.00,Acu-Link.com,2013-12-07 07:11:00,
2013-12-07 02:26:00,28.2,28.0,30.03,NNW,337,2.2,-999.0,99,-99.99,,,0.00,Acu-Link.com,2013-12-07 07:26:00,
2013-12-07 02:41:00,28.2,28.0,30.03,West,270,2.7,-999.0,99,-99.99,,,0.00,Acu-Link.com,2013-12-07 07:41:00,
2013-12-07 02:57:00,28.2,28.0,30.04,West,270,2.7,-999.0,99,-99.99,,,0.00,Acu-Link.com,2013-12-07 07:57:00,
2013-12-07 03:12:00,28.0,27.8,30.05,West,270,3.7,-999.0,99,-99.99,,,0.00,Acu-Link.com,2013-12-07 08:12:00,
2013-12-07 03:27:00,27.9,27.7,30.04,NW,315,2.2,-999.0,99,-99.99,,,0.00,Acu-Link.com,2013-12-07 08:27:00,
2013-12-07 03:42:00,27.9,27.7,30.05,NW,315,3.2,-999.0,99,-99.99,,,0.00,Acu-Link.com,2013-12-07 08:42:00,
2013-12-07 03:58:00,27.7,27.5,30.06,West,270,2.7,-999.0,99,-99.99,,,0.00,Acu-Link.com,2013-12-07 08:58:00,
2013-12-07 04:13:00,27.7,27.5,30.06,West,270,3.2,-999.0,99,-99.99,,,0.00,Acu-Link.com,2013-12-07 09:13:00,
2013-12-07 04:28:00,27.5,27.3,30.07,WNW,292,3.7,-999.0,99,-99.99,,,0.00,Acu-Link.com,2013-12-07 09:28:00,
2013-12-07 04:43:00,27.5,27.3,30.07,West,270,2.7,-999.0,99,-99.99,,,0.00,Acu-Link.com,2013-12-07 09:43:00,
2013-12-07 04:58:00,27.5,27.3,30.08,West,270,4.2,-999.0,99,-99.99,,,0.00,Acu-Link.com,2013-12-07 09:58:00,
2013-12-07 05:14:00,27.3,27.1,30.09,West,270,5.8,-999.0,99,-99.99,,,0.00,Acu-Link.com,2013-12-07 10:14:00,
2013-12-07 05:29:00,27.3,27.1,30.09,NW,315,4.7,-999.0,99,-99.99,,,0.00,Acu-Link.com,2013-12-07 10:29:00,
2013-12-07 05:44:00,27.1,26.9,30.10,NW,315,3.7,-999.0,99,-99.99,,,0.00,Acu-Link.com,2013-12-07 10:44:00,
2013-12-07 05:59:00,27.1,26.9,30.11,West,270,2.2,-999.0,99,-99.99,,,0.00,Acu-Link.com,2013-12-07 10:59:00,
2013-12-07 06:14:00,27.3,27.1,30.12,West,270,3.2,-999.0,99,-99.99,,,0.00,Acu-Link.com,2013-12-07 11:14:00,
2013-12-07 06:29:00,27.1,26.9,30.13,West,270,2.2,-999.0,99,-99.99,,,0.00,Acu-Link.com,2013-12-07 11:29:00,
2013-12-07 06:44:00,27.1,26.9,30.14,NNW,337,2.2,-999.0,99,-99.99,,,0.00,Acu-Link.com,2013-12-07 11:44:00,
2013-12-07 06:59:00,27.0,26.8,30.15,West,270,3.7,-999.0,99,-99.99,,,0.00,Acu-Link.com,2013-12-07 11:59:00,
2013-12-07 07:14:00,26.8,26.6,30.16,West,270,3.2,-999.0,99,-99.99,,,0.00,Acu-Link.com,2013-12-07 12:14:00,
2013-12-07 07:30:00,26.8,26.6,30.17,West,270,4.2,-999.0,99,-99.99,,,0.00,Acu-Link.com,2013-12-07 12:30:00,
2013-12-07 07:45:00,26.8,26.6,30.16,WNW,292,2.2,-999.0,99,-99.99,,,0.00,Acu-Link.com,2013-12-07 12:45:00,
2013-12-07 08:00:00,26.8,26.6,30.16,West,270,3.2,-999.0,99,-99.99,,,0.00,Acu-Link.com,2013-12-07 13:00:00,
2013-12-07 08:15:00,26.8,26.6,30.17,West,270,2.2,-999.0,99,-99.99,,,0.00,Acu-Link.com,2013-12-07 13:15:00,
2013-12-07 08:31:00,26.8,26.3,30.18,West,270,4.7,-999.0,98,-99.99,,,0.00,Acu-Link.com,2013-12-07 13:31:00,
2013-12-07 08:46:00,26.8,26.3,30.18,SE,135,4.2,-999.0,98,-99.99,,,0.00,Acu-Link.com,2013-12-07 13:46:00,
2013-12-07 09:01:00,27.0,26.3,30.19,West,270,4.2,-999.0,97,-99.99,,,0.00,Acu-Link.com,2013-12-07 14:01:00,
2013-12-07 09:16:00,26.8,26.1,30.19,West,270,3.2,-999.0,97,-99.99,,,0.00,Acu-Link.com,2013-12-07 14:16:00,
2013-12-07 09:31:00,27.0,26.0,30.20,West,270,4.7,-999.0,96,-99.99,,,0.00,Acu-Link.com,2013-12-07 14:31:00,
2013-12-07 09:47:00,27.1,26.1,30.21,West,270,4.2,-999.0,96,-99.99,,,0.00,Acu-Link.com,2013-12-07 14:47:00,
2013-12-07 10:02:00,27.1,26.1,30.21,West,270,3.2,-999.0,96,-99.99,,,0.00,Acu-Link.com,2013-12-07 15:02:00,
2013-12-07 10:17:00,27.1,26.1,30.22,West,270,2.2,-999.0,96,-99.99,,,0.00,Acu-Link.com,2013-12-07 15:17:00,
2013-12-07 10:32:00,27.3,26.3,30.22,East,90,3.7,-999.0,96,-99.99,,,0.00,Acu-Link.com,2013-12-07 15:32:00,
2013-12-07 10:47:00,27.3,26.1,30.21,North,0,2.7,-999.0,95,-99.99,,,0.00,Acu-Link.com,2013-12-07 15:47:00,
2013-12-07 11:02:00,27.5,26.5,30.22,NNW,337,2.7,-999.0,96,-99.99,,,0.00,Acu-Link.com,2013-12-07 16:02:00,
2013-12-07 11:18:00,27.3,26.1,30.21,West,270,3.2,-999.0,95,-99.99,,,0.00,Acu-Link.com,2013-12-07 16:18:00,
2013-12-07 11:33:00,27.5,26.0,30.21,West,270,4.7,-999.0,94,-99.99,,,0.00,Acu-Link.com,2013-12-07 16:33:00,
2013-12-07 11:48:00,27.9,26.4,30.21,WNW,292,3.7,-999.0,94,-99.99,,,0.00,Acu-Link.com,2013-12-07 16:48:00,
2013-12-07 12:04:00,28.0,25.7,30.20,WNW,292,4.2,-999.0,91,-99.99,,,0.00,Acu-Link.com,2013-12-07 17:04:00,
2013-12-07 12:19:00,28.8,26.2,30.20,WNW,292,3.2,-999.0,90,-99.99,,,0.00,Acu-Link.com,2013-12-07 17:19:00,
2013-12-07 12:34:00,29.7,26.9,30.20,WSW,247,4.7,-999.0,89,-99.99,,,0.00,Acu-Link.com,2013-12-07 17:34:00,
2013-12-07 12:50:00,29.5,26.4,30.19,WSW,247,3.7,-999.0,88,-99.99,,,0.00,Acu-Link.com,2013-12-07 17:50:00,
2013-12-07 13:05:00,28.9,23.8,30.20,West,270,5.8,-999.0,81,-99.99,,,0.00,Acu-Link.com,2013-12-07 18:05:00,
2013-12-07 13:20:00,27.7,24.1,30.20,WSW,247,4.7,-999.0,86,-99.99,,,0.00,Acu-Link.com,2013-12-07 18:20:00,
2013-12-07 13:35:00,29.8,24.7,30.20,WSW,247,6.3,-999.0,81,-99.99,,,0.00,Acu-Link.com,2013-12-07 18:35:00,
2013-12-07 13:50:00,29.8,25.0,30.19,West,270,3.2,-999.0,82,-99.99,,,0.00,Acu-Link.com,2013-12-07 18:50:00,
2013-12-07 14:05:00,29.7,24.3,30.19,West,270,8.3,-999.0,80,-99.99,,,0.00,Acu-Link.com,2013-12-07 19:05:00,
2013-12-07 14:20:00,30.4,24.4,30.19,SSW,202,6.8,-999.0,78,-99.99,,,0.00,Acu-Link.com,2013-12-07 19:20:00,
2013-12-07 14:35:00,29.5,24.1,30.19,West,270,4.2,-999.0,80,-99.99,,,0.00,Acu-Link.com,2013-12-07 19:35:00,
2013-12-07 14:50:00,29.3,23.9,30.19,West,270,5.8,-999.0,80,-99.99,,,0.00,Acu-Link.com,2013-12-07 19:50:00,
2013-12-07 15:06:00,28.8,23.4,30.19,WSW,247,2.7,-999.0,80,-99.99,,,0.00,Acu-Link.com,2013-12-07 20:06:00,
2013-12-07 15:21:00,28.4,22.7,30.20,SSW,202,6.3,-999.0,79,-99.99,,,0.00,Acu-Link.com,2013-12-07 20:21:00,
2013-12-07 15:36:00,28.6,23.5,30.20,WSW,247,4.2,-999.0,81,-99.99,,,0.00,Acu-Link.com,2013-12-07 20:36:00,
2013-12-07 15:51:00,28.4,23.6,30.21,West,270,3.7,-999.0,82,-99.99,,,0.00,Acu-Link.com,2013-12-07 20:51:00,
2013-12-07 16:06:00,28.4,23.0,30.21,West,270,3.7,-999.0,80,-99.99,,,0.00,Acu-Link.com,2013-12-07 21:06:00,
2013-12-07 16:22:00,27.9,23.1,30.22,SSW,202,3.7,-999.0,82,-99.99,,,0.00,Acu-Link.com,2013-12-07 21:22:00,
2013-12-07 16:37:00,27.3,22.3,30.21,WSW,247,3.7,-999.0,81,-99.99,,,0.00,Acu-Link.com,2013-12-07 21:37:00,
2013-12-07 16:52:00,26.6,22.1,30.22,West,270,2.7,-999.0,83,-99.99,,,0.00,Acu-Link.com,2013-12-07 21:52:00,
2013-12-07 17:07:00,25.7,21.8,30.22,West,270,2.2,-999.0,85,-99.99,,,0.00,Acu-Link.com,2013-12-07 22:07:00,
2013-12-07 17:23:00,25.0,21.7,30.23,West,270,0.0,-999.0,87,-99.99,,,0.00,Acu-Link.com,2013-12-07 22:23:00,
2013-12-07 17:38:00,24.8,21.2,30.24,West,270,1.7,-999.0,86,-99.99,,,0.00,Acu-Link.com,2013-12-07 22:38:00,
2013-12-07 17:53:00,24.3,21.3,30.24,West,270,2.7,-999.0,88,-99.99,,,0.00,Acu-Link.com,2013-12-07 22:53:00,
2013-12-07 18:08:00,23.9,20.6,30.25,NW,315,1.1,-999.0,87,-99.99,,,0.00,Acu-Link.com,2013-12-07 23:08:00,
2013-12-07 18:23:00,23.9,20.6,30.25,West,270,2.2,-999.0,87,-99.99,,,0.00,Acu-Link.com,2013-12-07 23:23:00,
2013-12-07 18:38:00,23.7,20.4,30.27,NNW,337,4.2,-999.0,87,-99.99,,,0.00,Acu-Link.com,2013-12-07 23:38:00,
2013-12-07 18:54:00,23.5,19.9,30.27,NW,315,2.7,-999.0,86,-99.99,,,0.00,Acu-Link.com,2013-12-07 23:54:00,
2013-12-07 19:09:00,23.7,19.6,30.27,West,270,2.7,-999.0,84,-99.99,,,0.00,Acu-Link.com,2013-12-08 00:09:00,
2013-12-07 19:24:00,23.2,19.6,30.28,West,270,2.2,-999.0,86,-99.99,,,0.00,Acu-Link.com,2013-12-08 00:24:00,
2013-12-07 19:39:00,23.0,19.2,30.28,NW,315,1.7,-999.0,85,-99.99,,,0.00,Acu-Link.com,2013-12-08 00:39:00,
2013-12-07 19:54:00,22.5,19.0,30.30,WNW,292,1.1,-999.0,86,-99.99,,,0.00,Acu-Link.com,2013-12-08 00:54:00,
2013-12-07 20:09:00,22.1,18.8,30.30,West,270,1.1,-999.0,87,-99.99,,,0.00,Acu-Link.com,2013-12-08 01:09:00,
2013-12-07 20:25:00,22.5,19.2,30.30,WSW,247,1.1,-999.0,87,-99.99,,,0.00,Acu-Link.com,2013-12-08 01:25:00,
2013-12-07 20:40:00,22.6,19.1,30.31,West,270,2.2,-999.0,86,-99.99,,,0.00,Acu-Link.com,2013-12-08 01:40:00,
2013-12-07 20:55:00,23.0,19.2,30.31,NNE,22,3.2,-999.0,85,-99.99,,,0.00,Acu-Link.com,2013-12-08 01:55:00,
2013-12-07 21:10:00,23.0,18.6,30.32,NW,315,1.7,-999.0,83,-99.99,,,0.00,Acu-Link.com,2013-12-08 02:10:00,
2013-12-07 21:25:00,22.8,18.7,30.31,NNW,337,0.0,-999.0,84,-99.99,,,0.00,Acu-Link.com,2013-12-08 02:25:00,
2013-12-07 21:41:00,22.6,19.1,30.31,NE,45,2.2,-999.0,86,-99.99,,,0.00,Acu-Link.com,2013-12-08 02:41:00,
2013-12-07 21:56:00,22.5,18.7,30.31,SSE,157,0.0,-999.0,85,-99.99,,,0.00,Acu-Link.com,2013-12-08 02:56:00,
2013-12-07 22:11:00,22.5,17.9,30.32,NNE,22,1.1,-999.0,82,-99.99,,,0.00,Acu-Link.com,2013-12-08 03:11:00,
2013-12-07 22:26:00,22.3,18.2,30.30,East,90,1.7,-999.0,84,-99.99,,,0.00,Acu-Link.com,2013-12-08 03:26:00,
2013-12-07 22:41:00,22.1,18.3,30.31,NNE,22,2.7,-999.0,85,-99.99,,,0.00,Acu-Link.com,2013-12-08 03:41:00,
2013-12-07 22:57:00,21.6,18.1,30.31,NNE,22,1.7,-999.0,86,-99.99,,,0.00,Acu-Link.com,2013-12-08 03:57:00,
2013-12-07 23:12:00,21.4,18.1,30.30,NNW,337,3.2,-999.0,87,-99.99,,,0.00,Acu-Link.com,2013-12-08 04:12:00,
2013-12-07 23:27:00,21.2,18.2,30.30,East,90,3.2,-999.0,88,-99.99,,,0.00,Acu-Link.com,2013-12-08 04:27:00,
2013-12-07 23:42:00,21.2,18.2,30.30,East,90,3.2,-999.0,88,-99.99,,,0.00,Acu-Link.com,2013-12-08 04:42:00,
2013-12-07 23:57:00,20.8,17.8,30.31,ESE,112,2.2,-999.0,88,-99.99,,,0.00,Acu-Link.com,2013-12-08 04:57:00,